Bright Ocean — HOGQ — position and weather

sailwx.info

Track history (hours):
 
Tides and Currents Weather Stations Pressure Air Temp Water Temp Dewpoint Dewpoint Depression Visibility Wind Speed Wind Dir Waves Ship Positions

Bright Ocean

Last reported at 2017-Nov-02 14:34 UTC. Time now 2017-Nov-23 23:55 UTC.
Position N 01°21' E 103°19'.
Warning: this ship's position is 21 days out of date.

Length 178 m; draft 7.3 m.

Type: Cargo ship. MMSI: 373816000.

Date/timePositionNaut miles runAvg speedWind from/ knotsBaromVisibWave heightAir tempDewpointWater temp
2017-Nov-02 14:34N 01°21' E 103°19'212.8
2017-Nov-02 14:24N 01°19' E 103°20'512.4
2017-Nov-02 13:59N 01°16' E 103°24'612.1
2017-Nov-02 13:30N 01°13' E 103°30'612.5
2017-Nov-02 13:01N 01°12' E 103°36'612.3
2017-Nov-02 12:30N 01°10' E 103°42'4 8.6
2017-Nov-02 12:01N 01°09' E 103°46'510.7
2017-Nov-02 11:30N 01°12' E 103°50'713.8
2017-Nov-02 11:00N 01°15' E 103°57'5 9.0
2017-Nov-02 10:30N 01°17' E 104°00'0 0.5
2017-Nov-02 09:58N 01°18' E 104°00'0 0.2
2017-Nov-02 09:10N 01°18' E 104°00'0 0.0
2017-Nov-02 08:58N 01°18' E 104°00'0 0.1
2017-Nov-02 08:25N 01°18' E 104°00'0 0.0
2017-Nov-02 07:34N 01°18' E 104°00'0 0.0
2017-Nov-02 07:25N 01°18' E 104°00'0 0.0
2017-Nov-02 06:58N 01°18' E 104°00'0 0.0
2017-Nov-02 04:52N 01°18' E 104°00'0 0.0
2017-Nov-02 04:10N 01°18' E 104°00'0 0.1
2017-Nov-02 03:58N 01°18' E 104°00'0 0.1
2017-Nov-02 03:28N 01°18' E 104°00'0 0.0
2017-Nov-02 00:04N 01°18' E 104°00'0 0.1
2017-Nov-01 23:34N 01°18' E 104°00'0 0.5
2017-Nov-01 23:28N 01°17' E 104°00'2 4.2
2017-Nov-01 22:59N 01°16' E 103°59'2 3.2
2017-Nov-01 22:30N 01°16' E 104°00'3 7.1
2017-Nov-01 22:01N 01°17' E 104°04'  
Track history (hours):
 
Tides and Currents Weather Stations Pressure Air Temp Water Temp Dewpoint Dewpoint Depression Visibility Wind Speed Wind Dir Waves Ship Positions

Bright Ocean

Last reported at 2017-Nov-02 14:34 UTC. Time now 2017-Nov-23 23:55 UTC.
Position N 01°21' E 103°19'.
Warning: this ship's position is 21 days out of date.

Length 178 m; draft 7.3 m.

Type: Cargo ship. MMSI: 373816000.

Date/timePositionNaut miles runAvg speedWind from/ knotsBaromVisibWave heightAir tempDewpointWater temp
2017-Nov-02 14:34N 01°21' E 103°19'212.8
2017-Nov-02 14:24N 01°19' E 103°20'512.4
2017-Nov-02 13:59N 01°16' E 103°24'612.1
2017-Nov-02 13:30N 01°13' E 103°30'612.5
2017-Nov-02 13:01N 01°12' E 103°36'612.3
2017-Nov-02 12:30N 01°10' E 103°42'4 8.6
2017-Nov-02 12:01N 01°09' E 103°46'510.7
2017-Nov-02 11:30N 01°12' E 103°50'713.8
2017-Nov-02 11:00N 01°15' E 103°57'5 9.0
2017-Nov-02 10:30N 01°17' E 104°00'0 0.5
2017-Nov-02 09:58N 01°18' E 104°00'0 0.2
2017-Nov-02 09:10N 01°18' E 104°00'0 0.0
2017-Nov-02 08:58N 01°18' E 104°00'0 0.1
2017-Nov-02 08:25N 01°18' E 104°00'0 0.0
2017-Nov-02 07:34N 01°18' E 104°00'0 0.0
2017-Nov-02 07:25N 01°18' E 104°00'0 0.0
2017-Nov-02 06:58N 01°18' E 104°00'0 0.0
2017-Nov-02 04:52N 01°18' E 104°00'0 0.0
2017-Nov-02 04:10N 01°18' E 104°00'0 0.1
2017-Nov-02 03:58N 01°18' E 104°00'0 0.1
2017-Nov-02 03:28N 01°18' E 104°00'0 0.0
2017-Nov-02 00:04N 01°18' E 104°00'0 0.1
2017-Nov-01 23:34N 01°18' E 104°00'0 0.5
2017-Nov-01 23:28N 01°17' E 104°00'2 4.2
2017-Nov-01 22:59N 01°16' E 103°59'2 3.2
2017-Nov-01 22:30N 01°16' E 104°00'3 7.1
2017-Nov-01 22:01N 01°17' E 104°04'  

Dump ship's entire track history